Accueil
METAR-TAF:

METAR-TAF

Aéroports :

Wunstorf, Allemagne

latitude: 52-27N, longitude: 009-26E, altitude: 57 m

Observation

Le bulletin a été fait il y a 52 minutes, à 04:20 UTC
Vent 3 kt de sud
Température -4°C
Humidité 100%
Pression 1027 hPa
Visibilité 10 km ou plus
Brouillard mince

METAR: ETNW 180420Z 17003KT 9999 MIFG M04/M04 Q1027 BLU+

Heure: 06:12 (05:12 UTC)

Prévision

Le bulletin a été fait il y a 6 heures et 7 minutes, à 23:05 UTC
Prévision valable du 18 à 00 UTC au 18 à 12 UTC
Vent 5 kt de est
Visibilité 10 km ou plus
Quelques nuages à une hauteur de 3500 ft
Nuages épars à une hauteur de 25000 ft
Probabilité 30%
du 18 à 00 UTC au 18 à 08 UTC
Vent 3 kt de direction variable
Visibilité: 2000 m
Ciel clair
brume

TAF: ETNW 172305Z 1800/1812 08005KT 9999 NSW FEW035 SCT250 PROB30 1800/1808 VRB03KT 2000 BR SKC BY ETGL

Observations et prévisions météorologiques de plus de 4000 aéroports (messages METAR et TAF).

Les stations disponibles sont représentées par des disques jaunes et rouges sur la carte.

Passer la souris dessus pour voir le nom de la station.

Cliquer dessus pour voir les observations et prévisions météorologiques.

Pour changer de carte: cliquez sur les boutons verts avec une croix noire pour zoomer, sur le bouton vert avec un tiret pour effectuer un zoom arrière, ou sur les flèches vertes pour les cartes adjacentes.


METAR-TAF: